x

Columbia River Bar - 20nm West Of Columbia River Mouth (46029) Wave Buoy

12:50 - Mon 5th Dec 2016 All times are PST. -8 hours from GMT.

  • Sig Wave height 13.8ft
  • Swell Direction
  • Peak Period 14s
  • Average Period 9s
  • Wind
    18mph, 22mph gusts
  • Sea Temp 53°f
  • Ar Temp 46°f
  • Sea Pressure 1022mb
  • Columbia River Bar - 20nm West Of Columbia River Mouth
  • Columbia River Bar - 20nm West Of Columbia River Mouth

More Historic Weather Station data

Upgrade to MSW Pro to gain access to the past 30 days of data for over 8000 Wavebouys and Weather Stations around the globe.

Join Pro

Comparision Forecast

View Surf forecast
   
Seg 12/05 12:50 14ft 14s 9s 18 22 mph 1022mb 53f 46f
Dom 12/04 11:50 14ft 14s 9s 18 20 mph 1022.3mb 52f 46f
10:50 15.5ft 13s 9s 4 7 mph 1022.9mb 53f 44f
9:50 15ft 15s 9s 13 20 mph 1023.1mb 53f 41f
8:50 16ft 15s 9s 18 25 mph 1022.7mb 53f 43f
7:50 15.5ft 15s 9s 13 18 mph 1022.7mb 53f 45f
6:50 16.5ft 15s 9s 16 22 mph 1022.6mb 53f 45f
5:50 16ft 14s 9s 20 31 mph 1022.8mb 54f 43f
4:50 17.5ft 15s 9s 18 25 mph 1022mb 55f 48f
3:50 17ft 14s 9s 22 27 mph 1021.7mb 55f 48f
2:50 16ft 14s 9s 27 34 mph 1021mb 55f 48f
1:50 16.5ft 14s 9s 22 31 mph 1020.7mb 55f 48f
12:50 15.5ft 13s 9s 25 29 mph 1020.6mb 56f 48f
11:50 15ft 15s 9s 20 27 mph 1020.9mb 55f 48f
10:50 15ft 15s 9s 25 29 mph 1020.8mb 55f 49f
8:50 13.5ft 14s 8s 25 29 mph 1019.6mb 55f 48f
7:50 15.5ft 14s 9s 27 34 mph 1018.9mb 55f 48f
6:50 13ft 14s 8s 29 36 mph 1018.7mb 55f 47f
5:50 15ft 14s 9s 27 36 mph 1018.8mb 55f 46f
4:50 15ft 15s 9s 22 29 mph 1018.8mb 54f 47f
3:50 13.5ft 14s 9s 22 27 mph 1018.9mb 54f 47f
2:50 17.5ft 14s 10s 20 25 mph 1019.4mb 54f 48f
1:50 15ft 14s 10s 22 27 mph 1019.8mb 54f 48f
12:50 15ft 14s 10s 20 27 mph 1020.3mb 53f 49f
Sáb 12/03 11:50 16.5ft 14s 10s 20 25 mph 1020.7mb 53f 49f
10:50 15.5ft 15s 9s 22 27 mph 1020.8mb 53f 50f
9:50 15.5ft 15s 9s 25 29 mph 1021.6mb 53f 50f
8:50 17ft 16s 10s 25 29 mph 1022.2mb 53f 51f
7:50 16.5ft 16s 10s 22 29 mph 1022.6mb 53f 52f
6:50 15ft 16s 10s 22 27 mph 1023.3mb 53f 52f
5:50 15.5ft 16s 10s 22 27 mph 1023.8mb 53f 52f
3:50 18.5ft 17s 11s 16 20 mph 1025.4mb 54f 51f
2:50 18ft 16s 11s 13 18 mph 1025.6mb 54f 51f
1:50 17.5ft 16s 11s 16 20 mph 1026.3mb 53f 51f
12:50 16.5ft 16s 10s 20 25 mph 1027.2mb 53f 51f
11:50 19ft 14s 11s 18 22 mph 1027.6mb 53f 52f
10:50 18ft 17s 11s 16 20 mph 1027.8mb 53f 52f
9:50 18ft 13s 11s 16 20 mph 1027.6mb 53f 51f
8:50 18.5ft 15s 11s 13 18 mph 1027.6mb 53f 52f
7:50 19.5ft 16s 11s 13 18 mph 1027.9mb 53f 52f
6:50 22.5ft 17s 12s 13 18 mph 1027.6mb 53f 52f
5:50 20.5ft 15s 12s 7 11 mph 1027mb 53f 51f
4:50 19.5ft 17s 12s 16 22 mph 1026.9mb 53f 50f
3:50 20.5ft 17s 12s 18 22 mph 1026.7mb 53f 51f
2:50 18.5ft 17s 11s 18 25 mph 1026.4mb 53f 52f
1:50 16.5ft 19s 11s 9 13 mph 1026.2mb 54f 50f
12:50 14.5ft 19s 9s 13 20 mph 1025.6mb 54f 52f
Sex 12/02 11:50 13ft 19s 9s 13 18 mph 1025.4mb 55f 52f
10:50 12.5ft 11s 9s 16 20 mph 1024.7mb 55f 53f
9:50 12ft 11s 8s 18 22 mph 1024.2mb 56f 53f
8:50 12ft 21s 9s 18 22 mph 1023.6mb 56f 53f
7:50 12ft 11s 8s 16 20 mph 1023.1mb 56f 53f
6:50 13ft 12s 8s 18 20 mph 1022.6mb 56f 53f
5:50 13ft 12s 8s 20 25 mph 1022mb 56f 54f
4:50 14ft 12s 8s 20 25 mph 1021.7mb 56f 54f
3:50 13ft 12s 7s 13 18 mph 1021.2mb 56f 52f
2:50 12ft 12s 7s 27 34 mph 1020.9mb 55f 53f
1:50 12ft 12s 7s 27 31 mph 1021.8mb 55f 53f
12:50 11.5ft 13s 7s 29 36 mph 1021.9mb 55f 52f
11:50 11ft 12s 7s 34 40 mph 1022.8mb 54f 52f
10:50 10ft 13s 6s 29 36 mph 1024mb 54f 51f
9:50 10ft 11s 7s 29 36 mph 1024.1mb 54f 51f
8:50 10ft 12s 7s 27 29 mph 1024.6mb 53f 51f
7:50 10.5ft 13s 7s 25 29 mph 1024.9mb 53f 51f
6:50 11ft 12s 8s 27 31 mph 1023.8mb 52f 52f
5:50 10ft 12s 7s 22 29 mph 1024.8mb 52f 52f
4:50 10ft 11s 8s 20 25 mph 1025.6mb 52f 51f
3:50 9ft 11s 7s 18 20 mph 1026.3mb 52f 51f
2:50 9ft 11s 8s 16 18 mph 1026.6mb 52f 51f
1:50 9ft 11s 8s 11 16 mph 1026.9mb 52f 52f
12:50 8ft 12s 8s 16 18 mph 1026.6mb 52f 52f
Qui 12/01 11:50 8ft 12s 8s 13 16 mph 1026.9mb 52f 52f
10:50 8.5ft 12s 8s 13 16 mph 1027mb 52f 52f
9:50 8ft 12s 8s 9 13 mph 1027.2mb 52f 52f
8:50 8.5ft 11s 8s 11 13 mph 1027.1mb 52f 52f
7:50 9ft 12s 8s 11 13 mph 1027.4mb 52f 51f
6:50 10ft 12s 8s 9 11 mph 1027.2mb 52f 52f
5:50 10.5ft 13s 9s 11 13 mph 1027.2mb 52f 52f
4:50 10.5ft 12s 9s 9 11 mph 1027mb 52f 51f
3:50 11.5ft 12s 9s 13 16 mph 1026.6mb 52f 51f
2:50 12ft 12s 9s 11 16 mph 1026.1mb 52f 51f
1:50 12ft 12s 9s 13 18 mph 1026mb 52f 51f
12:50 14.5ft 12s 10s 11 13 mph 1026.3mb 52f 51f
11:50 12ft 12s 9s 11 13 mph 1026.4mb 52f 51f
10:50 13ft 12s 9s 11 13 mph 1026.2mb 52f 51f